createdAt,value
2022-07-29T00:00:21.525Z,36.25
2022-07-29T00:00:53.782Z,7.43
2022-07-29T00:01:25.995Z,15.40
2022-07-29T00:02:00.739Z,10.50
2022-07-29T00:02:33.229Z,8.73
2022-07-29T00:03:05.559Z,5.70
2022-07-29T00:03:40.496Z,14.30
2022-07-29T00:04:15.652Z,30.20
2022-07-29T00:04:50.698Z,7.15
2022-07-29T00:05:23.131Z,8.30
2022-07-29T00:05:55.341Z,7.65
2022-07-29T00:06:30.207Z,12.35
2022-07-29T00:07:02.343Z,14.70
2022-07-29T00:07:34.581Z,23.38
2022-07-29T00:08:12.507Z,10.10
2022-07-29T00:08:44.957Z,14.73
2022-07-29T00:09:17.147Z,24.80
2022-07-29T00:09:52.625Z,13.48
2022-07-29T00:10:24.936Z,35.92
2022-07-29T00:10:57.192Z,16.08
2022-07-29T00:11:32.105Z,6.03
2022-07-29T00:12:05.037Z,16.42
2022-07-29T00:12:39.893Z,12.13
2022-07-29T00:13:13.214Z,14.50
2022-07-29T00:13:50.556Z,19.83
2022-07-29T00:14:25.715Z,9.23
2022-07-29T00:14:58.211Z,8.70
2022-07-29T00:15:30.640Z,18.30
2022-07-29T00:16:05.522Z,11.80
2022-07-29T00:16:37.764Z,13.05
2022-07-29T00:17:12.518Z,18.27
2022-07-29T00:17:51.286Z,8.13
2022-07-29T00:18:23.568Z,13.73
2022-07-29T00:19:01.912Z,9.80
2022-07-29T00:19:37.077Z,9.90
2022-07-29T00:20:10.854Z,18.92
2022-07-29T00:20:45.660Z,9.90
2022-07-29T00:21:17.782Z,10.45
2022-07-29T00:21:50.079Z,11.70
2022-07-29T00:22:25.039Z,15.75
2022-07-29T00:22:57.226Z,8.75
2022-07-29T00:23:30.692Z,11.95
2022-07-29T00:24:06.684Z,13.18
2022-07-29T00:24:38.861Z,39.72
2022-07-29T00:25:11.503Z,35.72
2022-07-29T00:25:46.361Z,8.43
2022-07-29T00:26:18.497Z,13.68
2022-07-29T00:26:50.681Z,12.27
2022-07-29T00:27:25.719Z,10.23
2022-07-29T00:27:57.911Z,16.90
2022-07-29T00:28:30.335Z,11.55
2022-07-29T00:29:32.957Z,17.05
2022-07-29T00:29:59.241Z,30.08
2022-07-29T00:30:33.957Z,17.65
2022-07-29T00:31:06.700Z,13.23
2022-07-29T00:31:38.965Z,15.00
2022-07-29T00:32:13.933Z,10.57
2022-07-29T00:32:46.065Z,12.57
2022-07-29T00:33:18.243Z,19.45
2022-07-29T00:33:53.185Z,11.10
2022-07-29T00:34:40.379Z,15.27
2022-07-29T00:35:30.225Z,16.95
2022-07-29T00:36:02.390Z,10.85
2022-07-29T00:36:34.533Z,11.63
2022-07-29T00:37:07.951Z,8.48
2022-07-29T00:37:42.852Z,18.50
2022-07-29T00:38:18.270Z,30.92
2022-07-29T00:38:53.762Z,14.02
2022-07-29T00:39:25.989Z,35.42
2022-07-29T00:39:59.758Z,37.88
2022-07-29T00:40:32.045Z,14.32
2022-07-29T00:41:06.904Z,38.83
2022-07-29T00:41:39.010Z,15.27
2022-07-29T00:42:11.244Z,11.77
2022-07-29T00:42:46.979Z,21.13
2022-07-29T00:43:19.366Z,11.52
2022-07-29T00:43:51.528Z,8.15
2022-07-29T00:44:26.827Z,9.27
2022-07-29T00:44:58.959Z,11.75
2022-07-29T00:45:31.620Z,13.95
2022-07-29T00:46:06.354Z,10.80
2022-07-29T00:46:38.572Z,8.43
2022-07-29T00:47:12.081Z,74.47
2022-07-29T00:47:47.396Z,14.90
2022-07-29T00:48:19.614Z,11.80
2022-07-29T00:48:51.869Z,7.35
2022-07-29T00:49:26.847Z,35.28
2022-07-29T00:49:59.148Z,14.82
2022-07-29T00:50:36.844Z,9.98
2022-07-29T00:51:09.361Z,14.70
2022-07-29T00:51:42.139Z,17.02
2022-07-29T00:52:17.364Z,39.35
2022-07-29T00:52:49.764Z,5.18
2022-07-29T00:53:25.240Z,8.85
2022-07-29T00:53:58.805Z,12.60
2022-07-29T00:54:31.467Z,32.65
2022-07-29T00:55:08.662Z,9.43
2022-07-29T00:55:43.797Z,10.68
2022-07-29T00:56:16.011Z,16.30
2022-07-29T00:56:48.289Z,7.65
2022-07-29T00:57:24.025Z,11.45
2022-07-29T00:57:56.396Z,6.63
2022-07-29T00:58:31.314Z,5.90
2022-07-29T00:59:03.547Z,5.70
2022-07-29T00:59:35.842Z,7.00
2022-07-29T01:00:13.658Z,5.70
2022-07-29T01:00:46.249Z,13.40
2022-07-29T01:01:21.255Z,15.93
2022-07-29T01:01:53.539Z,19.38
2022-07-29T01:02:25.849Z,7.82
2022-07-29T01:03:00.658Z,11.88
2022-07-29T01:03:34.108Z,5.72
2022-07-29T01:04:07.767Z,10.45
2022-07-29T01:04:43.184Z,9.15
2022-07-29T01:05:18.196Z,12.85
2022-07-29T01:05:56.646Z,4.93
2022-07-29T01:06:28.847Z,13.80
2022-07-29T01:07:03.086Z,11.60
2022-07-29T01:07:39.035Z,5.78
2022-07-29T01:08:14.390Z,18.80
2022-07-29T01:08:48.335Z,8.10
2022-07-29T01:09:35.052Z,10.50
2022-07-29T01:10:17.356Z,10.75
2022-07-29T01:10:54.809Z,9.70
2022-07-29T01:11:27.327Z,41.58
2022-07-29T01:12:01.330Z,14.02
2022-07-29T01:12:37.941Z,9.73
2022-07-29T01:13:12.150Z,8.00
2022-07-29T01:13:47.536Z,5.78
2022-07-29T01:14:20.301Z,23.10
2022-07-29T01:14:54.554Z,8.38
2022-07-29T01:15:29.792Z,17.88
2022-07-29T01:16:11.728Z,11.18
2022-07-29T01:16:52.728Z,5.13
2022-07-29T01:17:30.550Z,8.60
2022-07-29T01:18:08.434Z,36.75
2022-07-29T01:18:48.332Z,12.50
2022-07-29T01:19:45.051Z,11.07
2022-07-29T01:20:25.529Z,10.20
2022-07-29T01:21:26.866Z,16.88
2022-07-29T01:22:03.415Z,14.60
2022-07-29T01:22:56.178Z,13.75
2022-07-29T01:24:09.423Z,12.88
2022-07-29T01:24:56.087Z,17.50
2022-07-29T01:25:45.895Z,17.42
2022-07-29T01:26:38.824Z,7.53
2022-07-29T01:27:29.601Z,13.57
2022-07-29T01:28:28.619Z,10.50
2022-07-29T01:29:08.415Z,13.05
2022-07-29T01:29:45.260Z,7.93
2022-07-29T01:30:24.404Z,8.25
2022-07-29T01:30:57.922Z,11.48
2022-07-29T01:31:38.547Z,6.82
2022-07-29T01:32:32.023Z,7.75
2022-07-29T01:33:09.036Z,16.83
2022-07-29T01:33:52.329Z,8.35
2022-07-29T01:34:31.619Z,15.30
2022-07-29T01:35:07.575Z,10.75
2022-07-29T01:35:42.559Z,9.52
2022-07-29T01:36:25.752Z,9.95
2022-07-29T01:37:06.364Z,8.38
2022-07-29T01:37:47.182Z,5.57
2022-07-29T01:38:29.309Z,7.78
2022-07-29T01:39:08.720Z,10.43
2022-07-29T01:39:46.020Z,9.40
2022-07-29T01:40:23.376Z,8.48
2022-07-29T01:41:03.911Z,11.23
2022-07-29T01:41:41.325Z,5.53
2022-07-29T01:42:22.014Z,12.82
2022-07-29T01:43:00.674Z,7.50
2022-07-29T01:43:37.843Z,18.45
2022-07-29T01:44:19.864Z,9.25
2022-07-29T01:45:01.317Z,13.05
2022-07-29T01:45:40.390Z,16.83
2022-07-29T01:46:18.845Z,9.95
2022-07-29T01:46:59.537Z,7.15
2022-07-29T01:47:38.483Z,8.98
2022-07-29T01:48:18.933Z,7.85
2022-07-29T01:48:58.696Z,14.65
2022-07-29T01:49:35.836Z,7.38
2022-07-29T01:50:16.405Z,13.68
2022-07-29T01:50:53.247Z,37.42
2022-07-29T01:51:31.756Z,6.88
2022-07-29T01:52:11.686Z,11.25
2022-07-29T01:52:48.434Z,8.68
2022-07-29T01:53:28.023Z,6.60
2022-07-29T01:54:18.488Z,14.00
2022-07-29T01:54:55.929Z,15.02
2022-07-29T01:55:34.620Z,12.25
2022-07-29T01:56:10.219Z,20.38
2022-07-29T01:56:44.967Z,6.97
2022-07-29T01:57:23.185Z,8.65
2022-07-29T01:57:57.663Z,9.30
2022-07-29T01:58:32.526Z,7.88
2022-07-29T01:59:10.589Z,18.23
2022-07-29T01:59:47.726Z,10.77
2022-07-29T02:00:20.160Z,10.45
2022-07-29T02:00:56.392Z,7.70
2022-07-29T02:01:30.940Z,21.27
2022-07-29T02:02:04.108Z,13.43
2022-07-29T02:02:41.803Z,10.23
2022-07-29T02:03:14.982Z,9.93
2022-07-29T02:03:48.030Z,28.38
2022-07-29T02:04:29.634Z,19.42
2022-07-29T02:05:05.761Z,11.80
2022-07-29T02:05:40.836Z,11.70
2022-07-29T02:06:20.012Z,20.70
2022-07-29T02:06:55.658Z,7.80
2022-07-29T02:07:30.602Z,7.57
2022-07-29T02:08:06.218Z,8.60
2022-07-29T02:08:40.430Z,10.88
2022-07-29T02:09:15.364Z,15.88
2022-07-29T02:09:53.200Z,17.35
2022-07-29T02:10:30.983Z,17.73
2022-07-29T02:11:05.496Z,10.93
2022-07-29T02:11:41.951Z,17.52
2022-07-29T02:12:15.988Z,12.77
2022-07-29T02:12:50.725Z,11.82
2022-07-29T02:13:28.870Z,7.65
2022-07-29T02:14:02.188Z,8.50
2022-07-29T02:14:37.397Z,23.83
2022-07-29T02:15:16.366Z,52.38
2022-07-29T02:15:53.267Z,17.85
2022-07-29T02:16:30.122Z,10.10
2022-07-29T02:17:06.110Z,7.47
2022-07-29T02:17:43.092Z,10.13
2022-07-29T02:18:21.579Z,12.23
2022-07-29T02:18:55.479Z,13.75
2022-07-29T02:19:30.230Z,9.13
2022-07-29T02:20:07.686Z,13.02
2022-07-29T02:20:43.831Z,10.10
2022-07-29T02:21:20.781Z,18.20
2022-07-29T02:21:57.548Z,17.92
2022-07-29T02:22:32.564Z,12.68
2022-07-29T02:23:05.419Z,32.63
2022-07-29T02:23:50.966Z,31.63
2022-07-29T02:24:25.703Z,26.67
2022-07-29T02:25:02.088Z,22.65
2022-07-29T02:25:37.422Z,18.27
2022-07-29T02:26:10.909Z,15.65
2022-07-29T02:26:48.162Z,35.17
2022-07-29T02:27:23.674Z,51.83
2022-07-29T02:27:57.487Z,12.45
2022-07-29T02:28:34.826Z,19.33
2022-07-29T02:29:07.996Z,10.82
2022-07-29T02:29:44.023Z,10.55
2022-07-29T02:30:19.480Z,10.63
2022-07-29T02:30:53.953Z,7.53
2022-07-29T02:31:35.173Z,14.52
2022-07-29T02:32:11.556Z,12.75
2022-07-29T02:32:46.998Z,9.90
2022-07-29T02:33:23.739Z,32.92
2022-07-29T02:33:57.229Z,9.00
2022-07-29T02:34:30.678Z,14.00
2022-07-29T02:35:06.695Z,13.77
2022-07-29T02:35:41.534Z,14.27
2022-07-29T02:36:14.229Z,12.82
2022-07-29T02:36:49.677Z,7.25
2022-07-29T02:37:23.114Z,14.85
2022-07-29T02:38:11.555Z,8.52
2022-07-29T02:38:51.418Z,24.92
2022-07-29T02:39:28.263Z,22.17
2022-07-29T02:40:00.849Z,14.63
2022-07-29T02:40:34.805Z,22.08
2022-07-29T02:41:14.105Z,12.15
2022-07-29T02:41:49.935Z,44.08
2022-07-29T02:42:26.965Z,10.80
2022-07-29T02:43:00.591Z,14.93
2022-07-29T02:43:34.272Z,7.85
2022-07-29T02:44:13.707Z,18.15
2022-07-29T02:44:46.419Z,9.90
2022-07-29T02:45:21.366Z,10.70
2022-07-29T02:45:58.858Z,16.85
2022-07-29T02:46:34.170Z,18.63
2022-07-29T02:47:14.803Z,22.40
2022-07-29T02:47:53.434Z,12.45
2022-07-29T02:48:33.113Z,10.38
2022-07-29T02:49:20.202Z,13.40
2022-07-29T02:49:56.439Z,9.63
2022-07-29T02:50:34.077Z,17.75
2022-07-29T02:51:43.507Z,24.75
2022-07-29T02:52:15.407Z,21.38
2022-07-29T02:52:58.195Z,12.32
2022-07-29T02:53:34.542Z,10.38
2022-07-29T02:54:09.676Z,14.15
2022-07-29T02:54:49.868Z,9.07
2022-07-29T02:55:27.537Z,14.82
2022-07-29T02:56:03.002Z,35.80
2022-07-29T02:56:38.795Z,17.13
2022-07-29T02:57:20.395Z,19.35
2022-07-29T02:58:01.753Z,26.60
2022-07-29T02:58:38.365Z,25.48
2022-07-29T02:59:12.615Z,20.02
2022-07-29T02:59:49.272Z,42.80
2022-07-29T03:00:26.261Z,69.47
2022-07-29T03:01:02.452Z,24.92
2022-07-29T03:01:38.843Z,25.30
2022-07-29T03:02:12.839Z,20.08
2022-07-29T03:02:50.072Z,19.13
2022-07-29T03:03:25.666Z,12.60
2022-07-29T03:04:02.054Z,11.88
2022-07-29T03:04:35.773Z,32.83
2022-07-29T03:05:14.697Z,10.55
2022-07-29T03:05:47.046Z,13.38
2022-07-29T03:06:37.639Z,20.05
2022-07-29T03:07:16.877Z,13.13
2022-07-29T03:07:53.598Z,14.15
2022-07-29T03:08:27.724Z,12.38
2022-07-29T03:09:06.600Z,22.67
2022-07-29T03:09:43.643Z,22.52
2022-07-29T03:10:16.099Z,17.15
2022-07-29T03:10:52.001Z,11.43
2022-07-29T03:11:46.251Z,42.85
2022-07-29T03:12:20.242Z,11.63
2022-07-29T03:12:52.985Z,27.83
2022-07-29T03:13:26.007Z,19.85
2022-07-29T03:14:01.152Z,34.97
2022-07-29T03:14:33.622Z,9.65
2022-07-29T03:15:08.107Z,50.10
2022-07-29T03:15:46.836Z,33.50
2022-07-29T03:16:20.701Z,9.30
2022-07-29T03:16:53.617Z,15.68
2022-07-29T03:17:29.490Z,42.67
2022-07-29T03:18:02.136Z,27.88
2022-07-29T03:18:35.004Z,20.02
2022-07-29T03:19:10.125Z,21.63
2022-07-29T03:19:43.131Z,11.20
2022-07-29T03:20:19.358Z,17.13
2022-07-29T03:20:51.737Z,13.63
2022-07-29T03:21:23.958Z,17.38
2022-07-29T03:22:00.921Z,49.47
2022-07-29T03:22:33.478Z,21.45
2022-07-29T03:23:05.700Z,19.38
2022-07-29T03:23:37.877Z,22.20
2022-07-29T03:24:12.939Z,20.25
2022-07-29T03:24:45.275Z,31.00
2022-07-29T03:25:24.039Z,10.07
2022-07-29T03:25:56.969Z,25.05
2022-07-29T03:26:29.491Z,25.88
2022-07-29T03:27:05.122Z,17.20
2022-07-29T03:27:37.405Z,53.17
2022-07-29T03:28:09.842Z,67.43
2022-07-29T03:28:44.627Z,60.78
2022-07-29T03:29:17.051Z,45.75
2022-07-29T03:29:52.121Z,30.27
2022-07-29T03:30:28.287Z,22.88
2022-07-29T03:31:03.638Z,23.33
2022-07-29T03:31:37.988Z,25.45
2022-07-29T03:32:13.249Z,30.55
2022-07-29T03:32:46.197Z,24.10
2022-07-29T03:33:18.395Z,21.65
2022-07-29T03:33:53.357Z,19.52
2022-07-29T03:34:25.626Z,20.40
2022-07-29T03:34:57.857Z,16.15
2022-07-29T03:35:33.299Z,22.92
2022-07-29T03:36:05.592Z,33.00
2022-07-29T03:36:40.319Z,21.00
2022-07-29T03:37:14.711Z,37.45
2022-07-29T03:37:47.051Z,70.95
2022-07-29T03:38:22.549Z,48.78
2022-07-29T03:38:55.725Z,13.68
2022-07-29T03:39:32.896Z,20.15
2022-07-29T03:40:12.456Z,24.55
2022-07-29T03:40:49.891Z,78.63
2022-07-29T03:41:25.830Z,65.22
2022-07-29T03:42:03.313Z,27.13
2022-07-29T03:42:39.201Z,31.73
2022-07-29T03:43:14.529Z,22.75
2022-07-29T03:43:51.395Z,44.55
2022-07-29T03:44:25.225Z,59.03
2022-07-29T03:45:00.514Z,46.47
2022-07-29T03:45:35.243Z,33.80
2022-07-29T03:46:15.261Z,36.30
2022-07-29T03:46:49.871Z,34.55
2022-07-29T03:47:43.520Z,43.20
2022-07-29T03:48:25.653Z,45.50
2022-07-29T03:49:01.668Z,31.65
2022-07-29T03:49:36.813Z,51.45
2022-07-29T03:50:14.432Z,77.03
2022-07-29T03:50:46.909Z,66.18
2022-07-29T03:51:19.247Z,40.80
2022-07-29T03:52:08.943Z,37.92
2022-07-29T03:52:41.886Z,15.43
2022-07-29T03:53:18.235Z,65.28
2022-07-29T03:53:50.575Z,74.32
2022-07-29T03:54:26.132Z,95.50
2022-07-29T03:54:58.811Z,24.05
2022-07-29T03:55:37.525Z,37.97
2022-07-29T03:56:13.986Z,110.47
2022-07-29T03:56:49.735Z,57.22
2022-07-29T03:57:26.114Z,79.78
2022-07-29T03:58:02.798Z,39.00
2022-07-29T03:58:35.826Z,61.17
2022-07-29T03:59:09.482Z,33.63
2022-07-29T03:59:45.028Z,38.50
2022-07-29T04:00:17.759Z,30.33
2022-07-29T04:00:50.389Z,70.70
2022-07-29T04:01:28.559Z,65.07
2022-07-29T04:02:02.494Z,82.25
2022-07-29T04:02:37.614Z,35.08
2022-07-29T04:03:11.696Z,62.42
2022-07-29T04:03:46.412Z,65.22
2022-07-29T04:04:21.379Z,58.28
2022-07-29T04:04:53.881Z,50.40
2022-07-29T04:05:26.070Z,25.17
2022-07-29T04:06:06.761Z,24.92
2022-07-29T04:06:40.103Z,64.95
2022-07-29T04:07:13.850Z,43.72
2022-07-29T04:07:49.154Z,46.67
2022-07-29T04:08:21.334Z,28.35
2022-07-29T04:08:53.749Z,34.20
2022-07-29T04:09:28.490Z,56.80
2022-07-29T04:10:00.732Z,19.52
2022-07-29T04:10:33.984Z,33.63
2022-07-29T04:11:09.762Z,63.35
2022-07-29T04:11:57.046Z,44.38
2022-07-29T04:12:35.492Z,54.33
2022-07-29T04:13:10.270Z,16.15
2022-07-29T04:13:42.449Z,44.30
2022-07-29T04:14:14.760Z,37.42
2022-07-29T04:14:49.883Z,26.92
2022-07-29T04:15:22.393Z,45.08
2022-07-29T04:15:54.769Z,36.65
2022-07-29T04:16:32.294Z,41.83
2022-07-29T04:17:05.610Z,40.33
2022-07-29T04:17:38.158Z,38.92
2022-07-29T04:18:12.958Z,36.60
2022-07-29T04:18:45.199Z,58.47
2022-07-29T04:19:17.362Z,50.17
2022-07-29T04:19:52.155Z,70.97
2022-07-29T04:20:24.303Z,54.42
2022-07-29T04:20:56.444Z,42.17
2022-07-29T04:21:31.369Z,56.45
2022-07-29T04:22:03.710Z,51.95
2022-07-29T04:22:35.938Z,32.08
2022-07-29T04:23:10.765Z,30.15
2022-07-29T04:23:53.063Z,30.23
2022-07-29T04:24:28.803Z,56.97
2022-07-29T04:25:04.026Z,92.90
2022-07-29T04:25:38.965Z,78.03
2022-07-29T04:26:13.755Z,109.80
2022-07-29T04:26:47.256Z,73.53
2022-07-29T04:27:19.420Z,75.32
2022-07-29T04:28:04.904Z,60.67
2022-07-29T04:28:37.179Z,66.45
2022-07-29T04:29:09.548Z,81.20
2022-07-29T04:29:56.106Z,79.43
2022-07-29T04:30:30.660Z,59.35
2022-07-29T04:31:05.636Z,64.47
2022-07-29T04:31:40.449Z,61.60
2022-07-29T04:32:12.763Z,66.15
2022-07-29T04:32:47.848Z,30.13
2022-07-29T04:33:20.034Z,78.50
2022-07-29T04:33:52.320Z,35.30
2022-07-29T04:34:28.058Z,112.15
2022-07-29T04:35:00.530Z,65.10
2022-07-29T04:35:38.373Z,101.20
2022-07-29T04:36:29.041Z,64.47
2022-07-29T04:37:01.866Z,47.97
2022-07-29T04:37:34.253Z,57.97
2022-07-29T04:38:15.594Z,110.45
2022-07-29T04:38:49.111Z,77.10
2022-07-29T04:39:23.153Z,70.15
2022-07-29T04:39:58.309Z,73.50
2022-07-29T04:40:30.723Z,66.28
2022-07-29T04:41:02.932Z,59.15
2022-07-29T04:41:38.447Z,82.13
2022-07-29T04:42:10.762Z,47.38
2022-07-29T04:42:46.301Z,89.45
2022-07-29T04:43:22.729Z,43.72
2022-07-29T04:43:55.895Z,75.10
2022-07-29T04:44:32.326Z,32.95
2022-07-29T04:45:11.488Z,46.28
2022-07-29T04:45:43.630Z,34.15
2022-07-29T04:46:19.089Z,44.22
2022-07-29T04:46:53.931Z,56.42
2022-07-29T04:47:26.099Z,30.10
2022-07-29T04:48:00.831Z,44.35
2022-07-29T04:48:33.099Z,53.38
2022-07-29T04:49:05.644Z,66.63
2022-07-29T04:49:42.181Z,41.25
2022-07-29T04:50:14.370Z,70.95
2022-07-29T04:50:47.090Z,48.92
2022-07-29T04:51:21.854Z,77.85
2022-07-29T04:51:54.022Z,64.60
2022-07-29T04:52:26.210Z,43.78
2022-07-29T04:53:01.066Z,43.88
2022-07-29T04:53:33.272Z,61.00
2022-07-29T04:54:08.679Z,34.63
2022-07-29T04:54:41.035Z,54.72
2022-07-29T04:55:13.294Z,122.88
2022-07-29T04:55:48.328Z,59.22
2022-07-29T04:56:20.546Z,99.90
2022-07-29T04:56:52.705Z,75.00
2022-07-29T04:57:27.452Z,67.05
2022-07-29T04:57:59.739Z,83.07
2022-07-29T04:58:35.732Z,69.25
2022-07-29T04:59:10.545Z,83.93
2022-07-29T04:59:45.344Z,44.25
2022-07-29T05:00:17.859Z,47.45
2022-07-29T05:00:52.667Z,60.83
2022-07-29T05:01:24.924Z,105.70
2022-07-29T05:01:59.797Z,78.43
2022-07-29T05:02:35.756Z,42.03
2022-07-29T05:03:08.084Z,34.50
2022-07-29T05:03:40.511Z,65.43
2022-07-29T05:04:15.551Z,63.67
2022-07-29T05:04:47.983Z,66.65
2022-07-29T05:05:20.386Z,50.10
2022-07-29T05:05:55.254Z,67.20
2022-07-29T05:06:27.644Z,29.08
2022-07-29T05:06:59.870Z,61.17
2022-07-29T05:07:34.723Z,43.67
2022-07-29T05:08:06.943Z,80.00
2022-07-29T05:08:41.919Z,68.05
2022-07-29T05:09:14.243Z,35.30
2022-07-29T05:09:46.358Z,111.93
2022-07-29T05:10:21.256Z,48.17
2022-07-29T05:10:53.474Z,42.88
2022-07-29T05:11:30.090Z,59.08
2022-07-29T05:12:05.265Z,87.72
2022-07-29T05:12:37.508Z,53.10
2022-07-29T05:13:12.187Z,60.78
2022-07-29T05:13:46.053Z,116.53
2022-07-29T05:14:19.598Z,69.55
2022-07-29T05:14:54.831Z,105.00
2022-07-29T05:15:27.197Z,114.82
2022-07-29T05:15:59.611Z,63.42
2022-07-29T05:16:34.575Z,44.47
2022-07-29T05:17:09.597Z,65.82
2022-07-29T05:17:41.778Z,66.97
2022-07-29T05:18:16.640Z,74.75
2022-07-29T05:18:48.879Z,65.65
2022-07-29T05:19:20.989Z,71.40
2022-07-29T05:19:55.734Z,77.65
2022-07-29T05:20:29.401Z,99.53
2022-07-29T05:21:01.627Z,104.97
2022-07-29T05:21:36.379Z,92.40
2022-07-29T05:22:08.579Z,68.00
2022-07-29T05:22:40.875Z,83.07
2022-07-29T05:23:16.694Z,90.03
2022-07-29T05:23:48.897Z,70.70
2022-07-29T05:24:21.113Z,74.82
2022-07-29T05:24:55.898Z,125.18
2022-07-29T05:25:43.503Z,62.47
2022-07-29T05:26:19.257Z,124.60
2022-07-29T05:26:51.371Z,76.07
2022-07-29T05:27:24.042Z,63.67
2022-07-29T05:27:59.835Z,90.40
2022-07-29T05:28:34.713Z,85.53
2022-07-29T05:29:07.222Z,60.30
2022-07-29T05:30:01.973Z,43.13
2022-07-29T05:30:34.151Z,59.67
2022-07-29T05:31:06.402Z,77.07
2022-07-29T05:31:41.325Z,68.30
2022-07-29T05:32:16.261Z,63.95
2022-07-29T05:32:48.512Z,72.43
2022-07-29T05:33:34.646Z,65.32
2022-07-29T05:34:08.924Z,64.80
2022-07-29T05:34:51.038Z,66.75
2022-07-29T05:35:26.508Z,48.53
2022-07-29T05:36:00.848Z,42.40
2022-07-29T05:36:35.930Z,57.97
2022-07-29T05:37:08.102Z,152.25
2022-07-29T05:37:43.480Z,87.75
2022-07-29T05:38:15.775Z,60.63
2022-07-29T05:38:47.997Z,88.68
2022-07-29T05:39:22.863Z,103.03
2022-07-29T05:40:15.179Z,73.72
2022-07-29T05:40:50.091Z,111.43
2022-07-29T05:41:22.320Z,44.03
2022-07-29T05:41:54.565Z,95.57
2022-07-29T05:42:30.259Z,115.05
2022-07-29T05:43:02.460Z,78.82
2022-07-29T05:43:34.595Z,104.07
2022-07-29T05:44:09.617Z,67.28
2022-07-29T05:44:41.916Z,77.20
2022-07-29T05:45:14.210Z,192.23
2022-07-29T05:45:49.971Z,114.70
2022-07-29T05:46:22.670Z,64.90
2022-07-29T05:46:54.952Z,38.17
2022-07-29T05:47:32.588Z,79.72
2022-07-29T05:48:05.356Z,62.05
2022-07-29T05:48:38.020Z,84.28
2022-07-29T05:49:13.254Z,53.80
2022-07-29T05:49:59.318Z,67.13
2022-07-29T05:50:34.159Z,64.18
2022-07-29T05:51:06.392Z,42.83
2022-07-29T05:51:38.606Z,55.22
2022-07-29T05:52:14.203Z,61.30
2022-07-29T05:52:46.482Z,49.75
2022-07-29T05:53:20.545Z,64.80
2022-07-29T05:53:55.743Z,103.90
2022-07-29T05:54:28.207Z,53.03
2022-07-29T05:55:03.869Z,77.25
2022-07-29T05:55:38.809Z,75.85
2022-07-29T05:56:11.942Z,38.95
2022-07-29T05:56:44.099Z,48.25
2022-07-29T05:57:22.882Z,61.97
2022-07-29T05:57:55.060Z,53.83
2022-07-29T05:58:27.173Z,38.55
2022-07-29T05:59:02.369Z,51.22
2022-07-29T05:59:37.300Z,60.65
2022-07-29T06:00:13.697Z,58.42
2022-07-29T06:00:46.461Z,70.43
2022-07-29T06:01:18.813Z,40.50
2022-07-29T06:01:53.658Z,77.85
2022-07-29T06:02:25.876Z,57.17
2022-07-29T06:03:03.194Z,57.28
2022-07-29T06:03:36.113Z,62.53
2022-07-29T06:04:08.351Z,96.38
2022-07-29T06:04:43.251Z,57.00
2022-07-29T06:05:17.352Z,38.17
2022-07-29T06:05:52.113Z,46.70
2022-07-29T06:06:24.408Z,55.72
2022-07-29T06:06:56.680Z,78.20
2022-07-29T06:07:31.860Z,65.85
2022-07-29T06:08:08.473Z,101.97
2022-07-29T06:08:41.349Z,113.82
2022-07-29T06:09:16.242Z,83.05
2022-07-29T06:09:48.444Z,77.32
2022-07-29T06:10:20.697Z,53.80
2022-07-29T06:10:58.744Z,66.28
2022-07-29T06:11:31.167Z,54.17
2022-07-29T06:12:04.280Z,54.03
2022-07-29T06:12:39.032Z,61.05
2022-07-29T06:13:11.345Z,74.75
2022-07-29T06:13:43.557Z,50.65
2022-07-29T06:14:18.797Z,67.35
2022-07-29T06:14:54.181Z,46.00
2022-07-29T06:15:26.599Z,48.38
2022-07-29T06:16:01.372Z,58.22
2022-07-29T06:16:33.711Z,113.75
2022-07-29T06:17:06.553Z,50.95
2022-07-29T06:17:59.987Z,65.00
2022-07-29T06:18:36.210Z,62.90
2022-07-29T06:19:10.990Z,33.75
2022-07-29T06:19:43.150Z,106.72
2022-07-29T06:20:15.405Z,42.90
2022-07-29T06:20:50.208Z,47.17
2022-07-29T06:21:22.339Z,52.63
2022-07-29T06:21:54.664Z,53.83
2022-07-29T06:22:29.890Z,75.72
2022-07-29T06:23:05.441Z,94.78
2022-07-29T06:23:38.113Z,67.15
2022-07-29T06:24:14.304Z,41.85
2022-07-29T06:24:46.715Z,34.70
2022-07-29T06:25:19.493Z,49.35
2022-07-29T06:25:54.242Z,52.63
2022-07-29T06:26:31.334Z,54.00
2022-07-29T06:27:06.554Z,82.32
2022-07-29T06:27:38.815Z,180.27
2022-07-29T06:28:11.844Z,56.58
2022-07-29T06:28:46.627Z,87.40
2022-07-29T06:29:18.799Z,77.13
2022-07-29T06:29:53.592Z,118.05
2022-07-29T06:30:25.927Z,79.85
2022-07-29T06:31:00.816Z,101.03
2022-07-29T06:31:33.047Z,115.47
2022-07-29T06:32:10.283Z,67.85
2022-07-29T06:32:43.321Z,95.63
2022-07-29T06:33:19.778Z,94.22
2022-07-29T06:33:57.213Z,75.72
2022-07-29T06:34:29.500Z,92.15
2022-07-29T06:35:32.931Z,84.30
2022-07-29T06:35:58.498Z,74.53
2022-07-29T06:36:33.382Z,60.67
2022-07-29T06:37:07.705Z,98.38
2022-07-29T06:37:47.728Z,90.05
2022-07-29T06:38:34.058Z,92.13
2022-07-29T06:39:09.103Z,109.40
2022-07-29T06:39:41.356Z,104.30
2022-07-29T06:40:29.025Z,134.45
2022-07-29T06:41:01.828Z,91.85
2022-07-29T06:41:36.993Z,103.22
2022-07-29T06:42:15.330Z,66.07
2022-07-29T06:42:47.481Z,109.25
2022-07-29T06:43:22.264Z,114.88
2022-07-29T06:43:56.812Z,119.65
2022-07-29T06:44:32.174Z,104.43
2022-07-29T06:45:09.329Z,62.00
2022-07-29T06:45:42.697Z,105.75
2022-07-29T06:46:19.781Z,102.18
2022-07-29T06:46:52.774Z,98.47
2022-07-29T06:47:27.567Z,137.95
2022-07-29T06:47:59.782Z,95.75
2022-07-29T06:48:32.605Z,108.20
2022-07-29T06:49:09.941Z,91.28
2022-07-29T06:49:42.199Z,58.38
2022-07-29T06:50:15.136Z,92.05
2022-07-29T06:50:50.048Z,82.22
2022-07-29T06:51:23.901Z,56.67
2022-07-29T06:51:59.204Z,72.47
2022-07-29T06:52:31.402Z,73.55
2022-07-29T06:53:03.796Z,80.25
2022-07-29T06:53:39.179Z,89.75
2022-07-29T06:54:30.238Z,89.28
2022-07-29T06:55:05.031Z,79.53
2022-07-29T06:55:38.396Z,131.85
2022-07-29T06:56:10.820Z,136.57
2022-07-29T06:56:45.519Z,79.03
2022-07-29T06:57:17.745Z,65.03
2022-07-29T06:57:49.894Z,81.82
2022-07-29T06:58:26.811Z,145.93
2022-07-29T06:59:02.100Z,91.63
2022-07-29T06:59:36.799Z,95.15
2022-07-29T07:00:10.695Z,88.78
2022-07-29T07:00:43.164Z,109.22
2022-07-29T07:01:17.983Z,86.03
2022-07-29T07:01:50.235Z,70.20
2022-07-29T07:02:22.571Z,123.00
2022-07-29T07:02:57.434Z,85.35
2022-07-29T07:03:29.926Z,71.63
2022-07-29T07:04:05.024Z,44.92
2022-07-29T07:04:39.809Z,99.68
2022-07-29T07:05:12.018Z,102.93
2022-07-29T07:05:46.747Z,50.97
2022-07-29T07:06:18.946Z,63.40
2022-07-29T07:06:53.749Z,50.63
2022-07-29T07:07:26.064Z,61.58
2022-07-29T07:07:58.250Z,76.68
2022-07-29T07:08:33.058Z,107.68
2022-07-29T07:09:05.361Z,45.58
2022-07-29T07:09:39.990Z,115.97
2022-07-29T07:10:15.980Z,106.28
2022-07-29T07:10:48.148Z,104.97
2022-07-29T07:11:23.226Z,74.85
2022-07-29T07:11:55.397Z,96.22
2022-07-29T07:12:27.547Z,73.35
2022-07-29T07:13:02.829Z,67.20
2022-07-29T07:13:36.613Z,96.28
2022-07-29T07:14:11.721Z,98.40
2022-07-29T07:14:43.823Z,104.10
2022-07-29T07:15:15.992Z,75.85
2022-07-29T07:15:51.912Z,105.07
2022-07-29T07:16:24.113Z,114.45
2022-07-29T07:16:58.915Z,177.57
2022-07-29T07:17:31.088Z,70.55
2022-07-29T07:18:03.339Z,123.18
2022-07-29T07:18:38.175Z,145.63
2022-07-29T07:19:10.548Z,81.15
2022-07-29T07:19:46.216Z,86.57
2022-07-29T07:20:21.753Z,84.10
2022-07-29T07:20:58.102Z,104.63
2022-07-29T07:21:33.034Z,103.82
2022-07-29T07:22:05.206Z,89.70
2022-07-29T07:22:39.058Z,55.20
2022-07-29T07:23:14.229Z,76.47
2022-07-29T07:23:47.198Z,62.75
2022-07-29T07:24:22.147Z,76.95
2022-07-29T07:24:54.291Z,54.42
2022-07-29T07:25:26.708Z,83.93
2022-07-29T07:26:01.560Z,125.93
2022-07-29T07:26:33.742Z,76.10
2022-07-29T07:27:05.898Z,83.72
2022-07-29T07:27:40.388Z,64.82
2022-07-29T07:28:12.862Z,64.85
2022-07-29T07:28:47.586Z,59.40
2022-07-29T07:29:19.859Z,86.57
2022-07-29T07:29:52.005Z,130.57
2022-07-29T07:30:26.830Z,97.43
2022-07-29T07:30:59.025Z,69.38
2022-07-29T07:31:33.935Z,93.15
2022-07-29T07:32:06.721Z,61.13
2022-07-29T07:32:38.927Z,90.63
2022-07-29T07:33:13.888Z,106.13
2022-07-29T07:33:46.191Z,96.82
2022-07-29T07:34:18.862Z,80.20
2022-07-29T07:36:04.610Z,69.00
2022-07-29T07:36:36.760Z,135.02
2022-07-29T07:37:11.554Z,79.55
2022-07-29T07:37:43.836Z,52.35
2022-07-29T07:38:16.009Z,51.90
2022-07-29T07:38:50.783Z,51.45